sensor_id;sensor_type;location;lat;lon;timestamp;P1;durP1;ratioP1;P2;durP2;ratioP2
912;SDS011;443;51.448;7.028;2023-04-29T00:00:06;27.20;;;17.73;;
912;SDS011;443;51.448;7.028;2023-04-29T00:02:34;28.33;;;18.00;;
912;SDS011;443;51.448;7.028;2023-04-29T00:05:01;28.07;;;18.70;;
912;SDS011;443;51.448;7.028;2023-04-29T00:07:28;23.40;;;15.40;;
912;SDS011;443;51.448;7.028;2023-04-29T00:09:56;23.23;;;17.63;;
912;SDS011;443;51.448;7.028;2023-04-29T00:12:23;28.30;;;18.00;;
912;SDS011;443;51.448;7.028;2023-04-29T00:14:50;28.70;;;16.57;;
912;SDS011;443;51.448;7.028;2023-04-29T00:17:18;27.30;;;16.23;;
912;SDS011;443;51.448;7.028;2023-04-29T00:19:45;26.97;;;16.40;;
912;SDS011;443;51.448;7.028;2023-04-29T00:22:12;20.73;;;14.63;;
912;SDS011;443;51.448;7.028;2023-04-29T00:24:38;27.87;;;15.33;;
912;SDS011;443;51.448;7.028;2023-04-29T00:27:05;29.20;;;18.20;;
912;SDS011;443;51.448;7.028;2023-04-29T00:29:32;28.10;;;17.20;;
912;SDS011;443;51.448;7.028;2023-04-29T00:31:58;22.97;;;15.83;;
912;SDS011;443;51.448;7.028;2023-04-29T00:34:27;23.23;;;14.23;;
912;SDS011;443;51.448;7.028;2023-04-29T00:36:53;25.60;;;14.80;;
912;SDS011;443;51.448;7.028;2023-04-29T00:39:20;30.63;;;15.13;;
912;SDS011;443;51.448;7.028;2023-04-29T00:41:47;28.40;;;17.50;;
912;SDS011;443;51.448;7.028;2023-04-29T00:44:14;25.43;;;15.77;;
912;SDS011;443;51.448;7.028;2023-04-29T00:46:41;30.03;;;16.93;;
912;SDS011;443;51.448;7.028;2023-04-29T00:49:08;22.97;;;14.70;;
912;SDS011;443;51.448;7.028;2023-04-29T00:51:37;30.73;;;17.23;;
912;SDS011;443;51.448;7.028;2023-04-29T00:54:06;32.17;;;19.23;;
912;SDS011;443;51.448;7.028;2023-04-29T00:56:34;35.00;;;22.20;;
912;SDS011;443;51.448;7.028;2023-04-29T00:59:02;37.07;;;20.47;;
912;SDS011;443;51.448;7.028;2023-04-29T01:01:30;40.00;;;22.60;;
912;SDS011;443;51.448;7.028;2023-04-29T01:03:57;37.47;;;19.60;;
912;SDS011;443;51.448;7.028;2023-04-29T01:06:25;33.80;;;20.30;;
912;SDS011;443;51.448;7.028;2023-04-29T01:09:05;34.67;;;19.90;;
912;SDS011;443;51.448;7.028;2023-04-29T01:11:45;41.37;;;22.17;;
912;SDS011;443;51.448;7.028;2023-04-29T01:14:19;35.23;;;19.90;;
912;SDS011;443;51.448;7.028;2023-04-29T01:16:48;36.60;;;23.33;;
912;SDS011;443;51.448;7.028;2023-04-29T01:19:19;38.23;;;21.87;;
912;SDS011;443;51.448;7.028;2023-04-29T01:22:02;35.07;;;20.33;;
912;SDS011;443;51.448;7.028;2023-04-29T01:24:30;43.07;;;20.90;;
912;SDS011;443;51.448;7.028;2023-04-29T01:26:58;38.30;;;21.10;;
912;SDS011;443;51.448;7.028;2023-04-29T01:29:39;38.10;;;22.23;;
912;SDS011;443;51.448;7.028;2023-04-29T01:32:15;47.57;;;24.03;;
912;SDS011;443;51.448;7.028;2023-04-29T01:34:48;48.03;;;23.67;;
912;SDS011;443;51.448;7.028;2023-04-29T01:37:21;38.03;;;22.90;;
912;SDS011;443;51.448;7.028;2023-04-29T01:40:04;43.30;;;22.60;;
912;SDS011;443;51.448;7.028;2023-04-29T01:42:39;50.87;;;27.17;;
912;SDS011;443;51.448;7.028;2023-04-29T01:45:13;44.90;;;24.40;;
912;SDS011;443;51.448;7.028;2023-04-29T01:47:42;50.10;;;23.77;;
912;SDS011;443;51.448;7.028;2023-04-29T01:50:10;45.90;;;22.67;;
912;SDS011;443;51.448;7.028;2023-04-29T01:52:37;46.50;;;24.70;;
912;SDS011;443;51.448;7.028;2023-04-29T01:55:05;44.43;;;23.53;;
912;SDS011;443;51.448;7.028;2023-04-29T01:57:35;45.13;;;24.80;;
912;SDS011;443;51.448;7.028;2023-04-29T02:00:01;44.97;;;21.33;;
912;SDS011;443;51.448;7.028;2023-04-29T02:02:28;45.43;;;24.33;;
912;SDS011;443;51.448;7.028;2023-04-29T02:04:55;49.50;;;24.80;;
912;SDS011;443;51.448;7.028;2023-04-29T02:07:22;53.70;;;26.30;;
912;SDS011;443;51.448;7.028;2023-04-29T02:09:49;50.07;;;23.77;;
912;SDS011;443;51.448;7.028;2023-04-29T02:12:17;56.30;;;27.60;;
912;SDS011;443;51.448;7.028;2023-04-29T02:14:44;52.83;;;24.07;;
912;SDS011;443;51.448;7.028;2023-04-29T02:17:12;43.73;;;23.17;;
912;SDS011;443;51.448;7.028;2023-04-29T02:19:38;43.83;;;22.77;;
912;SDS011;443;51.448;7.028;2023-04-29T02:22:05;41.20;;;21.90;;
912;SDS011;443;51.448;7.028;2023-04-29T02:24:32;36.50;;;19.60;;
912;SDS011;443;51.448;7.028;2023-04-29T02:26:59;35.50;;;19.00;;
912;SDS011;443;51.448;7.028;2023-04-29T02:29:31;36.90;;;21.83;;
912;SDS011;443;51.448;7.028;2023-04-29T02:31:57;35.10;;;20.37;;
912;SDS011;443;51.448;7.028;2023-04-29T02:34:24;40.27;;;21.50;;
912;SDS011;443;51.448;7.028;2023-04-29T02:36:51;41.70;;;21.80;;
912;SDS011;443;51.448;7.028;2023-04-29T02:39:18;35.27;;;20.67;;
912;SDS011;443;51.448;7.028;2023-04-29T02:41:45;36.53;;;20.03;;
912;SDS011;443;51.448;7.028;2023-04-29T02:44:11;37.03;;;19.60;;
912;SDS011;443;51.448;7.028;2023-04-29T02:46:39;32.17;;;17.97;;
912;SDS011;443;51.448;7.028;2023-04-29T02:49:09;37.63;;;18.50;;
912;SDS011;443;51.448;7.028;2023-04-29T02:51:37;31.00;;;17.27;;
912;SDS011;443;51.448;7.028;2023-04-29T02:54:03;35.07;;;18.07;;
912;SDS011;443;51.448;7.028;2023-04-29T02:56:30;33.20;;;18.27;;
912;SDS011;443;51.448;7.028;2023-04-29T02:58:57;27.17;;;15.17;;
912;SDS011;443;51.448;7.028;2023-04-29T03:01:24;31.73;;;16.57;;
912;SDS011;443;51.448;7.028;2023-04-29T03:03:52;27.90;;;15.43;;
912;SDS011;443;51.448;7.028;2023-04-29T03:06:19;23.60;;;13.50;;
912;SDS011;443;51.448;7.028;2023-04-29T03:08:46;25.03;;;15.07;;
912;SDS011;443;51.448;7.028;2023-04-29T03:11:12;27.20;;;14.27;;
912;SDS011;443;51.448;7.028;2023-04-29T03:13:39;22.60;;;14.70;;
912;SDS011;443;51.448;7.028;2023-04-29T03:16:06;24.00;;;13.67;;
912;SDS011;443;51.448;7.028;2023-04-29T03:18:33;29.27;;;14.13;;
912;SDS011;443;51.448;7.028;2023-04-29T03:21:01;24.60;;;14.20;;
912;SDS011;443;51.448;7.028;2023-04-29T03:23:29;26.30;;;15.13;;
912;SDS011;443;51.448;7.028;2023-04-29T03:25:56;22.73;;;13.13;;
912;SDS011;443;51.448;7.028;2023-04-29T03:28:22;22.10;;;12.13;;
912;SDS011;443;51.448;7.028;2023-04-29T03:30:49;26.20;;;15.10;;
912;SDS011;443;51.448;7.028;2023-04-29T03:33:16;28.27;;;14.20;;
912;SDS011;443;51.448;7.028;2023-04-29T03:35:43;22.53;;;14.40;;
912;SDS011;443;51.448;7.028;2023-04-29T03:38:11;22.60;;;15.00;;
912;SDS011;443;51.448;7.028;2023-04-29T03:40:38;21.37;;;13.17;;
912;SDS011;443;51.448;7.028;2023-04-29T03:43:05;20.80;;;14.03;;
912;SDS011;443;51.448;7.028;2023-04-29T03:45:33;19.20;;;12.80;;
912;SDS011;443;51.448;7.028;2023-04-29T03:48:00;26.20;;;13.60;;
912;SDS011;443;51.448;7.028;2023-04-29T03:50:27;25.13;;;14.97;;
912;SDS011;443;51.448;7.028;2023-04-29T03:52:54;24.83;;;14.43;;
912;SDS011;443;51.448;7.028;2023-04-29T03:55:23;22.43;;;12.90;;
912;SDS011;443;51.448;7.028;2023-04-29T03:57:50;20.43;;;12.73;;
912;SDS011;443;51.448;7.028;2023-04-29T04:00:16;26.10;;;15.40;;
912;SDS011;443;51.448;7.028;2023-04-29T04:02:43;18.67;;;12.27;;
912;SDS011;443;51.448;7.028;2023-04-29T04:05:10;25.00;;;13.43;;
912;SDS011;443;51.448;7.028;2023-04-29T04:07:37;21.00;;;12.33;;
912;SDS011;443;51.448;7.028;2023-04-29T04:10:04;21.43;;;12.83;;
912;SDS011;443;51.448;7.028;2023-04-29T04:12:33;21.20;;;11.70;;
912;SDS011;443;51.448;7.028;2023-04-29T04:14:59;23.00;;;14.17;;
912;SDS011;443;51.448;7.028;2023-04-29T04:17:27;17.70;;;13.30;;
912;SDS011;443;51.448;7.028;2023-04-29T04:19:54;19.10;;;11.83;;
912;SDS011;443;51.448;7.028;2023-04-29T04:22:21;22.57;;;12.40;;
912;SDS011;443;51.448;7.028;2023-04-29T04:24:47;20.50;;;13.27;;
912;SDS011;443;51.448;7.028;2023-04-29T04:27:14;18.20;;;11.97;;
912;SDS011;443;51.448;7.028;2023-04-29T04:29:42;21.13;;;11.67;;
912;SDS011;443;51.448;7.028;2023-04-29T04:32:09;21.77;;;11.80;;
912;SDS011;443;51.448;7.028;2023-04-29T04:34:36;14.23;;;11.43;;
912;SDS011;443;51.448;7.028;2023-04-29T04:37:04;15.70;;;10.97;;
912;SDS011;443;51.448;7.028;2023-04-29T04:39:31;21.00;;;10.53;;
912;SDS011;443;51.448;7.028;2023-04-29T04:41:58;16.60;;;11.17;;
912;SDS011;443;51.448;7.028;2023-04-29T04:44:27;20.00;;;13.23;;
912;SDS011;443;51.448;7.028;2023-04-29T04:46:56;21.53;;;11.63;;
912;SDS011;443;51.448;7.028;2023-04-29T04:49:25;19.93;;;11.83;;
912;SDS011;443;51.448;7.028;2023-04-29T04:51:52;19.77;;;12.83;;
912;SDS011;443;51.448;7.028;2023-04-29T04:54:18;14.73;;;10.90;;
912;SDS011;443;51.448;7.028;2023-04-29T04:56:45;20.00;;;12.97;;
912;SDS011;443;51.448;7.028;2023-04-29T04:59:12;16.80;;;10.13;;
912;SDS011;443;51.448;7.028;2023-04-29T05:01:39;19.93;;;11.30;;
912;SDS011;443;51.448;7.028;2023-04-29T05:04:07;20.87;;;13.37;;
912;SDS011;443;51.448;7.028;2023-04-29T05:06:34;20.03;;;12.60;;
912;SDS011;443;51.448;7.028;2023-04-29T05:09:01;19.30;;;11.97;;
912;SDS011;443;51.448;7.028;2023-04-29T05:11:28;17.20;;;12.20;;
912;SDS011;443;51.448;7.028;2023-04-29T05:13:55;17.93;;;12.03;;
912;SDS011;443;51.448;7.028;2023-04-29T05:16:21;17.07;;;11.20;;
912;SDS011;443;51.448;7.028;2023-04-29T05:18:48;17.43;;;11.10;;
912;SDS011;443;51.448;7.028;2023-04-29T05:21:16;16.80;;;11.60;;
912;SDS011;443;51.448;7.028;2023-04-29T05:23:43;16.80;;;11.30;;
912;SDS011;443;51.448;7.028;2023-04-29T05:26:10;20.57;;;13.07;;
912;SDS011;443;51.448;7.028;2023-04-29T05:28:36;22.43;;;13.40;;
912;SDS011;443;51.448;7.028;2023-04-29T05:31:03;22.47;;;12.53;;
912;SDS011;443;51.448;7.028;2023-04-29T05:33:30;19.77;;;10.73;;
912;SDS011;443;51.448;7.028;2023-04-29T05:35:57;20.27;;;12.70;;
912;SDS011;443;51.448;7.028;2023-04-29T05:38:25;15.10;;;10.83;;
912;SDS011;443;51.448;7.028;2023-04-29T05:40:53;19.23;;;12.27;;
912;SDS011;443;51.448;7.028;2023-04-29T05:43:20;20.50;;;11.97;;
912;SDS011;443;51.448;7.028;2023-04-29T05:45:46;17.03;;;10.30;;
912;SDS011;443;51.448;7.028;2023-04-29T05:48:13;16.47;;;11.17;;
912;SDS011;443;51.448;7.028;2023-04-29T05:50:40;18.83;;;11.80;;
912;SDS011;443;51.448;7.028;2023-04-29T05:53:07;16.07;;;11.73;;
912;SDS011;443;51.448;7.028;2023-04-29T05:55:35;16.60;;;10.70;;
912;SDS011;443;51.448;7.028;2023-04-29T05:58:01;15.23;;;10.80;;
912;SDS011;443;51.448;7.028;2023-04-29T06:00:28;18.37;;;11.40;;
912;SDS011;443;51.448;7.028;2023-04-29T06:02:55;17.90;;;13.73;;
912;SDS011;443;51.448;7.028;2023-04-29T06:05:22;15.17;;;10.57;;
912;SDS011;443;51.448;7.028;2023-04-29T06:07:49;17.90;;;11.47;;
912;SDS011;443;51.448;7.028;2023-04-29T06:10:16;21.53;;;13.00;;
912;SDS011;443;51.448;7.028;2023-04-29T06:12:44;17.80;;;10.03;;
912;SDS011;443;51.448;7.028;2023-04-29T06:15:13;14.70;;;10.50;;
912;SDS011;443;51.448;7.028;2023-04-29T06:17:40;22.53;;;12.97;;
912;SDS011;443;51.448;7.028;2023-04-29T06:20:07;14.90;;;11.50;;
912;SDS011;443;51.448;7.028;2023-04-29T06:22:35;15.73;;;11.07;;
912;SDS011;443;51.448;7.028;2023-04-29T06:25:01;18.30;;;11.70;;
912;SDS011;443;51.448;7.028;2023-04-29T06:27:28;19.70;;;12.47;;
912;SDS011;443;51.448;7.028;2023-04-29T06:29:57;19.67;;;11.27;;
912;SDS011;443;51.448;7.028;2023-04-29T06:32:24;23.67;;;13.33;;
912;SDS011;443;51.448;7.028;2023-04-29T06:34:50;18.40;;;13.10;;
912;SDS011;443;51.448;7.028;2023-04-29T06:37:17;20.07;;;11.97;;
912;SDS011;443;51.448;7.028;2023-04-29T06:39:44;16.87;;;11.53;;
912;SDS011;443;51.448;7.028;2023-04-29T06:42:10;16.63;;;10.60;;
912;SDS011;443;51.448;7.028;2023-04-29T06:44:37;19.93;;;12.63;;
912;SDS011;443;51.448;7.028;2023-04-29T06:47:05;19.57;;;12.60;;
912;SDS011;443;51.448;7.028;2023-04-29T06:49:32;19.17;;;11.50;;
912;SDS011;443;51.448;7.028;2023-04-29T06:51:59;17.93;;;11.23;;
912;SDS011;443;51.448;7.028;2023-04-29T06:54:26;17.77;;;12.87;;
912;SDS011;443;51.448;7.028;2023-04-29T06:56:53;21.80;;;14.03;;
912;SDS011;443;51.448;7.028;2023-04-29T06:59:22;16.17;;;10.57;;
912;SDS011;443;51.448;7.028;2023-04-29T07:01:48;17.30;;;10.37;;
912;SDS011;443;51.448;7.028;2023-04-29T07:04:17;16.50;;;11.60;;
912;SDS011;443;51.448;7.028;2023-04-29T07:06:44;22.37;;;12.40;;
912;SDS011;443;51.448;7.028;2023-04-29T07:09:11;19.63;;;11.97;;
912;SDS011;443;51.448;7.028;2023-04-29T07:11:37;16.33;;;10.00;;
912;SDS011;443;51.448;7.028;2023-04-29T07:14:04;18.57;;;12.87;;
912;SDS011;443;51.448;7.028;2023-04-29T07:16:31;18.33;;;11.20;;
912;SDS011;443;51.448;7.028;2023-04-29T07:18:58;16.37;;;10.93;;
912;SDS011;443;51.448;7.028;2023-04-29T07:21:26;18.20;;;11.50;;
912;SDS011;443;51.448;7.028;2023-04-29T07:23:54;18.43;;;12.30;;
912;SDS011;443;51.448;7.028;2023-04-29T07:26:23;12.47;;;10.17;;
912;SDS011;443;51.448;7.028;2023-04-29T07:28:50;16.87;;;11.80;;
912;SDS011;443;51.448;7.028;2023-04-29T07:31:16;20.20;;;12.40;;
912;SDS011;443;51.448;7.028;2023-04-29T07:33:43;17.20;;;12.97;;
912;SDS011;443;51.448;7.028;2023-04-29T07:36:11;15.83;;;11.00;;
912;SDS011;443;51.448;7.028;2023-04-29T07:38:39;14.10;;;9.80;;
912;SDS011;443;51.448;7.028;2023-04-29T07:41:06;22.63;;;14.37;;
912;SDS011;443;51.448;7.028;2023-04-29T07:43:32;16.77;;;10.63;;
912;SDS011;443;51.448;7.028;2023-04-29T07:45:59;17.13;;;11.43;;
912;SDS011;443;51.448;7.028;2023-04-29T07:48:26;16.90;;;11.57;;
912;SDS011;443;51.448;7.028;2023-04-29T07:50:53;23.03;;;12.90;;
912;SDS011;443;51.448;7.028;2023-04-29T07:53:19;18.80;;;12.70;;
912;SDS011;443;51.448;7.028;2023-04-29T07:55:47;19.50;;;12.13;;
912;SDS011;443;51.448;7.028;2023-04-29T07:58:14;22.10;;;14.40;;
912;SDS011;443;51.448;7.028;2023-04-29T08:00:41;11.17;;;7.43;;
912;SDS011;443;51.448;7.028;2023-04-29T08:03:08;23.20;;;15.90;;
912;SDS011;443;51.448;7.028;2023-04-29T08:05:34;20.47;;;16.00;;
912;SDS011;443;51.448;7.028;2023-04-29T08:08:01;30.50;;;18.10;;
912;SDS011;443;51.448;7.028;2023-04-29T08:10:28;26.53;;;15.50;;
912;SDS011;443;51.448;7.028;2023-04-29T08:12:56;26.60;;;15.97;;
912;SDS011;443;51.448;7.028;2023-04-29T08:15:23;21.87;;;13.23;;
912;SDS011;443;51.448;7.028;2023-04-29T08:17:50;28.20;;;17.97;;
912;SDS011;443;51.448;7.028;2023-04-29T08:20:16;28.20;;;17.70;;
912;SDS011;443;51.448;7.028;2023-04-29T08:22:43;26.40;;;18.13;;
912;SDS011;443;51.448;7.028;2023-04-29T08:25:10;32.87;;;18.30;;
912;SDS011;443;51.448;7.028;2023-04-29T08:27:36;24.27;;;16.87;;
912;SDS011;443;51.448;7.028;2023-04-29T08:30:05;22.37;;;14.53;;
912;SDS011;443;51.448;7.028;2023-04-29T08:32:33;26.83;;;18.53;;
912;SDS011;443;51.448;7.028;2023-04-29T08:35:00;26.20;;;16.27;;
912;SDS011;443;51.448;7.028;2023-04-29T08:37:27;28.67;;;15.13;;
912;SDS011;443;51.448;7.028;2023-04-29T08:39:53;27.73;;;16.23;;
912;SDS011;443;51.448;7.028;2023-04-29T08:42:29;25.30;;;15.57;;
912;SDS011;443;51.448;7.028;2023-04-29T08:44:58;32.37;;;16.77;;
912;SDS011;443;51.448;7.028;2023-04-29T08:47:27;25.50;;;14.67;;
912;SDS011;443;51.448;7.028;2023-04-29T08:49:55;26.70;;;15.90;;
912;SDS011;443;51.448;7.028;2023-04-29T08:52:23;26.60;;;15.13;;
912;SDS011;443;51.448;7.028;2023-04-29T08:54:50;28.63;;;14.77;;
912;SDS011;443;51.448;7.028;2023-04-29T08:57:17;31.00;;;17.13;;
912;SDS011;443;51.448;7.028;2023-04-29T08:59:45;23.10;;;14.47;;
912;SDS011;443;51.448;7.028;2023-04-29T09:02:12;28.30;;;17.53;;
912;SDS011;443;51.448;7.028;2023-04-29T09:04:47;25.43;;;16.13;;
912;SDS011;443;51.448;7.028;2023-04-29T09:07:20;26.03;;;18.27;;
912;SDS011;443;51.448;7.028;2023-04-29T09:09:48;27.53;;;17.50;;
912;SDS011;443;51.448;7.028;2023-04-29T09:12:16;24.87;;;15.53;;
912;SDS011;443;51.448;7.028;2023-04-29T09:14:43;26.17;;;16.30;;
912;SDS011;443;51.448;7.028;2023-04-29T09:17:10;26.20;;;15.13;;
912;SDS011;443;51.448;7.028;2023-04-29T09:19:37;22.40;;;16.60;;
912;SDS011;443;51.448;7.028;2023-04-29T09:22:05;25.77;;;17.87;;
912;SDS011;443;51.448;7.028;2023-04-29T09:24:32;25.57;;;16.60;;
912;SDS011;443;51.448;7.028;2023-04-29T09:26:59;30.80;;;17.00;;
912;SDS011;443;51.448;7.028;2023-04-29T09:29:27;28.00;;;15.97;;
912;SDS011;443;51.448;7.028;2023-04-29T09:31:54;24.30;;;15.93;;
912;SDS011;443;51.448;7.028;2023-04-29T09:34:32;25.50;;;18.50;;
912;SDS011;443;51.448;7.028;2023-04-29T09:37:01;32.73;;;18.53;;
912;SDS011;443;51.448;7.028;2023-04-29T09:39:37;27.33;;;17.30;;
912;SDS011;443;51.448;7.028;2023-04-29T09:42:04;25.90;;;16.07;;
912;SDS011;443;51.448;7.028;2023-04-29T09:44:33;27.73;;;15.80;;
912;SDS011;443;51.448;7.028;2023-04-29T09:47:01;26.90;;;16.63;;
912;SDS011;443;51.448;7.028;2023-04-29T09:49:29;29.00;;;17.07;;
912;SDS011;443;51.448;7.028;2023-04-29T09:52:00;27.90;;;15.70;;
912;SDS011;443;51.448;7.028;2023-04-29T09:54:28;28.37;;;17.10;;
912;SDS011;443;51.448;7.028;2023-04-29T09:56:57;6.43;;;3.53;;
912;SDS011;443;51.448;7.028;2023-04-29T09:59:25;25.73;;;13.77;;
912;SDS011;443;51.448;7.028;2023-04-29T10:01:52;21.33;;;12.40;;
912;SDS011;443;51.448;7.028;2023-04-29T10:04:20;22.00;;;12.37;;
912;SDS011;443;51.448;7.028;2023-04-29T10:06:49;11.50;;;8.67;;
912;SDS011;443;51.448;7.028;2023-04-29T10:09:17;21.70;;;13.53;;
912;SDS011;443;51.448;7.028;2023-04-29T10:11:46;7.60;;;5.07;;
912;SDS011;443;51.448;7.028;2023-04-29T10:14:15;9.10;;;6.77;;
912;SDS011;443;51.448;7.028;2023-04-29T10:16:44;66.03;;;42.23;;
912;SDS011;443;51.448;7.028;2023-04-29T10:19:14;17.93;;;11.20;;
912;SDS011;443;51.448;7.028;2023-04-29T10:21:49;16.67;;;8.87;;
912;SDS011;443;51.448;7.028;2023-04-29T10:24:17;12.97;;;9.30;;
912;SDS011;443;51.448;7.028;2023-04-29T10:26:45;26.63;;;15.83;;
912;SDS011;443;51.448;7.028;2023-04-29T10:29:16;23.53;;;14.47;;
912;SDS011;443;51.448;7.028;2023-04-29T10:31:44;9.33;;;6.50;;
912;SDS011;443;51.448;7.028;2023-04-29T10:34:15;14.53;;;8.17;;
912;SDS011;443;51.448;7.028;2023-04-29T10:36:43;28.70;;;17.30;;
912;SDS011;443;51.448;7.028;2023-04-29T10:39:12;12.83;;;9.20;;
912;SDS011;443;51.448;7.028;2023-04-29T10:41:47;22.13;;;11.03;;
912;SDS011;443;51.448;7.028;2023-04-29T10:44:16;13.23;;;8.67;;
912;SDS011;443;51.448;7.028;2023-04-29T10:46:43;24.00;;;17.33;;
912;SDS011;443;51.448;7.028;2023-04-29T10:49:10;15.87;;;7.53;;
912;SDS011;443;51.448;7.028;2023-04-29T10:51:38;29.10;;;18.40;;
912;SDS011;443;51.448;7.028;2023-04-29T10:54:07;13.70;;;9.20;;
912;SDS011;443;51.448;7.028;2023-04-29T10:56:39;23.63;;;16.33;;
912;SDS011;443;51.448;7.028;2023-04-29T10:59:12;11.83;;;7.20;;
912;SDS011;443;51.448;7.028;2023-04-29T11:01:44;11.90;;;7.57;;
912;SDS011;443;51.448;7.028;2023-04-29T11:04:12;13.37;;;9.17;;
912;SDS011;443;51.448;7.028;2023-04-29T11:06:40;17.13;;;7.70;;
912;SDS011;443;51.448;7.028;2023-04-29T11:09:09;22.93;;;18.17;;
912;SDS011;443;51.448;7.028;2023-04-29T11:11:42;26.17;;;18.83;;
912;SDS011;443;51.448;7.028;2023-04-29T11:14:30;8.57;;;6.87;;
912;SDS011;443;51.448;7.028;2023-04-29T11:17:04;10.77;;;8.73;;
912;SDS011;443;51.448;7.028;2023-04-29T11:19:34;12.77;;;9.07;;
912;SDS011;443;51.448;7.028;2023-04-29T11:22:03;12.30;;;9.10;;
912;SDS011;443;51.448;7.028;2023-04-29T11:24:47;30.47;;;19.73;;
912;SDS011;443;51.448;7.028;2023-04-29T11:27:16;24.87;;;16.83;;
912;SDS011;443;51.448;7.028;2023-04-29T11:29:45;25.67;;;19.30;;
912;SDS011;443;51.448;7.028;2023-04-29T11:32:12;26.20;;;16.60;;
912;SDS011;443;51.448;7.028;2023-04-29T11:34:39;17.40;;;10.13;;
912;SDS011;443;51.448;7.028;2023-04-29T11:37:06;19.00;;;13.97;;
912;SDS011;443;51.448;7.028;2023-04-29T11:39:33;19.27;;;14.70;;
912;SDS011;443;51.448;7.028;2023-04-29T11:42:03;28.50;;;19.40;;
912;SDS011;443;51.448;7.028;2023-04-29T11:44:32;31.43;;;18.67;;
912;SDS011;443;51.448;7.028;2023-04-29T11:47:02;29.93;;;20.43;;
912;SDS011;443;51.448;7.028;2023-04-29T11:49:29;15.17;;;12.60;;
912;SDS011;443;51.448;7.028;2023-04-29T11:51:56;26.87;;;20.57;;
912;SDS011;443;51.448;7.028;2023-04-29T11:54:24;28.60;;;20.77;;
912;SDS011;443;51.448;7.028;2023-04-29T11:56:52;24.33;;;20.20;;
912;SDS011;443;51.448;7.028;2023-04-29T11:59:19;57.93;;;19.27;;
912;SDS011;443;51.448;7.028;2023-04-29T12:01:46;26.60;;;18.07;;
912;SDS011;443;51.448;7.028;2023-04-29T12:04:14;50.40;;;18.27;;
912;SDS011;443;51.448;7.028;2023-04-29T12:06:41;22.60;;;17.53;;
912;SDS011;443;51.448;7.028;2023-04-29T12:09:08;25.00;;;18.13;;
912;SDS011;443;51.448;7.028;2023-04-29T12:11:36;31.03;;;19.93;;
912;SDS011;443;51.448;7.028;2023-04-29T12:14:03;25.30;;;17.77;;
912;SDS011;443;51.448;7.028;2023-04-29T12:16:31;25.40;;;17.87;;
912;SDS011;443;51.448;7.028;2023-04-29T12:18:58;24.10;;;16.30;;
912;SDS011;443;51.448;7.028;2023-04-29T12:21:27;26.13;;;14.70;;
912;SDS011;443;51.448;7.028;2023-04-29T12:23:53;24.57;;;18.07;;
912;SDS011;443;51.448;7.028;2023-04-29T12:26:26;42.77;;;13.07;;
912;SDS011;443;51.448;7.028;2023-04-29T12:28:55;40.30;;;14.13;;
912;SDS011;443;51.448;7.028;2023-04-29T12:31:22;22.10;;;15.70;;
912;SDS011;443;51.448;7.028;2023-04-29T12:33:52;44.53;;;13.07;;
912;SDS011;443;51.448;7.028;2023-04-29T12:36:20;62.27;;;13.97;;
912;SDS011;443;51.448;7.028;2023-04-29T12:38:49;58.33;;;16.60;;
912;SDS011;443;51.448;7.028;2023-04-29T12:41:18;17.20;;;12.60;;
912;SDS011;443;51.448;7.028;2023-04-29T12:43:45;55.87;;;13.27;;
912;SDS011;443;51.448;7.028;2023-04-29T12:46:15;70.73;;;16.83;;
912;SDS011;443;51.448;7.028;2023-04-29T12:48:43;67.00;;;17.07;;
912;SDS011;443;51.448;7.028;2023-04-29T12:51:10;17.23;;;13.27;;
912;SDS011;443;51.448;7.028;2023-04-29T12:53:36;38.37;;;16.43;;
912;SDS011;443;51.448;7.028;2023-04-29T12:56:05;25.03;;;13.87;;
912;SDS011;443;51.448;7.028;2023-04-29T12:58:32;15.30;;;13.30;;
912;SDS011;443;51.448;7.028;2023-04-29T13:00:59;16.33;;;13.10;;
912;SDS011;443;51.448;7.028;2023-04-29T13:03:26;76.70;;;20.00;;
912;SDS011;443;51.448;7.028;2023-04-29T13:05:53;16.60;;;13.13;;
912;SDS011;443;51.448;7.028;2023-04-29T13:08:20;69.47;;;16.50;;
912;SDS011;443;51.448;7.028;2023-04-29T13:10:46;124.87;;;19.90;;
912;SDS011;443;51.448;7.028;2023-04-29T13:13:15;85.67;;;19.97;;
912;SDS011;443;51.448;7.028;2023-04-29T13:15:41;67.27;;;18.63;;
912;SDS011;443;51.448;7.028;2023-04-29T13:18:08;68.37;;;16.13;;
912;SDS011;443;51.448;7.028;2023-04-29T13:20:35;29.00;;;10.30;;
912;SDS011;443;51.448;7.028;2023-04-29T13:23:02;64.53;;;17.40;;
912;SDS011;443;51.448;7.028;2023-04-29T13:25:29;15.50;;;11.30;;
912;SDS011;443;51.448;7.028;2023-04-29T13:27:55;53.70;;;14.70;;
912;SDS011;443;51.448;7.028;2023-04-29T13:30:23;81.17;;;16.87;;
912;SDS011;443;51.448;7.028;2023-04-29T13:32:50;16.20;;;9.90;;
912;SDS011;443;51.448;7.028;2023-04-29T13:35:17;13.03;;;9.60;;
912;SDS011;443;51.448;7.028;2023-04-29T13:37:44;30.33;;;10.10;;
912;SDS011;443;51.448;7.028;2023-04-29T13:40:12;26.73;;;11.83;;
912;SDS011;443;51.448;7.028;2023-04-29T13:42:38;72.70;;;17.07;;
912;SDS011;443;51.448;7.028;2023-04-29T13:45:06;74.33;;;16.60;;
912;SDS011;443;51.448;7.028;2023-04-29T13:47:35;78.57;;;16.40;;
912;SDS011;443;51.448;7.028;2023-04-29T13:50:01;12.13;;;9.47;;
912;SDS011;443;51.448;7.028;2023-04-29T13:52:28;13.33;;;8.67;;
912;SDS011;443;51.448;7.028;2023-04-29T13:54:55;58.87;;;14.53;;
912;SDS011;443;51.448;7.028;2023-04-29T13:57:22;83.27;;;15.50;;
912;SDS011;443;51.448;7.028;2023-04-29T13:59:51;11.27;;;7.73;;
912;SDS011;443;51.448;7.028;2023-04-29T14:02:19;42.43;;;16.50;;
912;SDS011;443;51.448;7.028;2023-04-29T14:04:47;34.87;;;12.07;;
912;SDS011;443;51.448;7.028;2023-04-29T14:07:14;11.20;;;8.20;;
912;SDS011;443;51.448;7.028;2023-04-29T14:09:41;17.63;;;9.70;;
912;SDS011;443;51.448;7.028;2023-04-29T14:12:07;16.23;;;9.30;;
912;SDS011;443;51.448;7.028;2023-04-29T14:14:34;10.17;;;8.37;;
912;SDS011;443;51.448;7.028;2023-04-29T14:17:01;9.63;;;7.87;;
912;SDS011;443;51.448;7.028;2023-04-29T14:19:28;33.17;;;10.60;;
912;SDS011;443;51.448;7.028;2023-04-29T14:21:56;21.43;;;10.47;;
912;SDS011;443;51.448;7.028;2023-04-29T14:24:22;24.27;;;9.13;;
912;SDS011;443;51.448;7.028;2023-04-29T14:26:49;20.10;;;8.57;;
912;SDS011;443;51.448;7.028;2023-04-29T14:29:17;20.50;;;7.00;;
912;SDS011;443;51.448;7.028;2023-04-29T14:31:44;51.83;;;12.17;;
912;SDS011;443;51.448;7.028;2023-04-29T14:34:10;94.60;;;19.80;;
912;SDS011;443;51.448;7.028;2023-04-29T14:36:37;44.53;;;9.87;;
912;SDS011;443;51.448;7.028;2023-04-29T14:39:06;10.77;;;7.67;;
912;SDS011;443;51.448;7.028;2023-04-29T14:41:33;13.33;;;8.10;;
912;SDS011;443;51.448;7.028;2023-04-29T14:44:00;12.00;;;7.50;;
912;SDS011;443;51.448;7.028;2023-04-29T14:46:27;15.63;;;6.90;;
912;SDS011;443;51.448;7.028;2023-04-29T14:48:54;22.53;;;7.40;;
912;SDS011;443;51.448;7.028;2023-04-29T14:51:20;9.50;;;6.90;;
912;SDS011;443;51.448;7.028;2023-04-29T14:53:47;17.33;;;7.23;;
912;SDS011;443;51.448;7.028;2023-04-29T14:56:16;9.07;;;7.50;;
912;SDS011;443;51.448;7.028;2023-04-29T14:58:43;10.70;;;7.47;;
912;SDS011;443;51.448;7.028;2023-04-29T15:01:10;15.80;;;6.97;;
912;SDS011;443;51.448;7.028;2023-04-29T15:03:36;7.37;;;6.07;;
912;SDS011;443;51.448;7.028;2023-04-29T15:06:03;9.57;;;6.97;;
912;SDS011;443;51.448;7.028;2023-04-29T15:08:30;9.67;;;8.20;;
912;SDS011;443;51.448;7.028;2023-04-29T15:10:57;9.80;;;7.23;;
912;SDS011;443;51.448;7.028;2023-04-29T15:13:25;7.70;;;6.83;;
912;SDS011;443;51.448;7.028;2023-04-29T15:15:52;8.60;;;6.50;;
912;SDS011;443;51.448;7.028;2023-04-29T15:18:19;8.77;;;7.40;;
912;SDS011;443;51.448;7.028;2023-04-29T15:20:47;10.87;;;6.90;;